This is the latest recevied weather packets stored in our database for station/object KO4YAW. If no packets are shown the sender has not sent any weather packets the latest 10 day(s).
| Time | Temp. | Humidity | Pressure | Rain* | Wind** | Luminosity | Snow |
|---|---|---|---|---|---|---|---|
| 1788455029 | 27.78° C | 24% | 1018.3 hPa | 0 mm | - | 468 W/m² | - |
| 1788454129 | 27.78° C | 25% | 1018.3 hPa | 0 mm | - | 196 W/m² | - |
| 1788453229 | 27.22° C | 27% | 1018.3 hPa | 0 mm | - | 305 W/m² | - |
| 1788452329 | 26.67° C | 28% | 1018.2 hPa | 0 mm | - | 680 W/m² | - |
| 1788451429 | 25.56° C | 31% | 1018.3 hPa | 0 mm | - | 245 W/m² | - |
| 1788450529 | 24.44° C | 31% | 1018.3 hPa | 0 mm | - | 522 W/m² | - |
| 1788449629 | 23.89° C | 32% | 1018.3 hPa | 0 mm | - | 191 W/m² | - |
| 1788448729 | 23.33° C | 35% | 1018.4 hPa | 0 mm | - | 88 W/m² | - |
| 1788447829 | 22.78° C | 35% | 1018.4 hPa | 0 mm | - | 50 W/m² | - |
| 1788446929 | 21.67° C | 38% | 1018.5 hPa | 0 mm | - | 40 W/m² | - |
| 1788446029 | 21.11° C | 39% | 1018.6 hPa | 0 mm | - | 38 W/m² | - |
| 1788445129 | 20° C | 42% | 1018.6 hPa | 0 mm | - | 44 W/m² | - |
| 1788444229 | 19.44° C | 45% | 1018.5 hPa | 0 mm | - | 37 W/m² | - |
| 1788443329 | 18.33° C | 48% | 1018.4 hPa | 0 mm | - | 33 W/m² | - |
| 1788442429 | 17.78° C | 48% | 1018.3 hPa | 0 mm | - | 36 W/m² | - |
| 1788441529 | 16.67° C | 51% | 1018.2 hPa | 0 mm | - | 105 W/m² | - |
| 1788440629 | 15.56° C | 57% | 1018 hPa | 0 mm | - | 21 W/m² | - |
| 1788439729 | 15° C | 60% | 1018 hPa | 0 mm | - | 12 W/m² | - |
| 1788438829 | 16.11° C | 59% | 1017.8 hPa | 0 mm | - | 4 W/m² | - |
| 1788437945 | 16.11° C | 58% | 1017.7 hPa | 0 mm | - | 0 W/m² | - |
| 1788437029 | 15.56° C | 60% | 1017.6 hPa | 0 mm | - | 0 W/m² | - |
| 1788436129 | 15° C | 64% | 1017.6 hPa | 0 mm | - | 0 W/m² | - |
| 1788435229 | 15.56° C | 64% | 1017.7 hPa | 0 mm | - | 0 W/m² | - |
| 1788434329 | 15.56° C | 63% | 1017.5 hPa | 0 mm | - | 0 W/m² | - |
| 1788433429 | 16.11° C | 61% | 1017.7 hPa | 0 mm | - | 0 W/m² | - |
* Rain since midnight (hover to see other rain measurements)
** Current wind speed in m/s (hover to see current wind gust speed)